sensor_id;sensor_type;location;lat;lon;timestamp;P1;durP1;ratioP1;P2;durP2;ratioP2
51228;SDS011;37304;52.216;6.874;2023-03-20T00:02:18;35.50;;;13.50;;
51228;SDS011;37304;52.216;6.874;2023-03-20T00:07:21;33.92;;;12.48;;
51228;SDS011;37304;52.216;6.874;2023-03-20T00:17:25;28.85;;;12.25;;
51228;SDS011;37304;52.216;6.874;2023-03-20T00:27:28;32.33;;;11.98;;
51228;SDS011;37304;52.216;6.874;2023-03-20T00:32:28;32.70;;;13.67;;
51228;SDS011;37304;52.216;6.874;2023-03-20T00:42:29;27.53;;;12.40;;
51228;SDS011;37304;52.216;6.874;2023-03-20T00:47:30;32.90;;;13.13;;
51228;SDS011;37304;52.216;6.874;2023-03-20T00:52:36;30.38;;;12.60;;
51228;SDS011;37304;52.216;6.874;2023-03-20T00:57:45;30.27;;;12.77;;
51228;SDS011;37304;52.216;6.874;2023-03-20T01:02:51;28.45;;;12.23;;
51228;SDS011;37304;52.216;6.874;2023-03-20T01:07:54;28.13;;;12.23;;
51228;SDS011;37304;52.216;6.874;2023-03-20T01:12:55;37.40;;;12.38;;
51228;SDS011;37304;52.216;6.874;2023-03-20T01:17:59;29.42;;;11.07;;
51228;SDS011;37304;52.216;6.874;2023-03-20T01:22:59;25.13;;;10.02;;
51228;SDS011;37304;52.216;6.874;2023-03-20T01:28:00;24.90;;;9.27;;
51228;SDS011;37304;52.216;6.874;2023-03-20T01:33:01;29.52;;;10.68;;
51228;SDS011;37304;52.216;6.874;2023-03-20T01:38:20;19.20;;;8.43;;
51228;SDS011;37304;52.216;6.874;2023-03-20T01:43:22;17.35;;;6.47;;
51228;SDS011;37304;52.216;6.874;2023-03-20T01:48:24;21.35;;;8.05;;
51228;SDS011;37304;52.216;6.874;2023-03-20T01:58:34;16.50;;;6.65;;
51228;SDS011;37304;52.216;6.874;2023-03-20T02:03:38;19.77;;;6.90;;
51228;SDS011;37304;52.216;6.874;2023-03-20T02:08:45;17.85;;;7.55;;
51228;SDS011;37304;52.216;6.874;2023-03-20T02:13:51;20.50;;;7.15;;
51228;SDS011;37304;52.216;6.874;2023-03-20T02:18:54;21.52;;;8.18;;
51228;SDS011;37304;52.216;6.874;2023-03-20T02:40:24;15.07;;;6.95;;
51228;SDS011;37304;52.216;6.874;2023-03-20T03:06:27;12.32;;;4.38;;
51228;SDS011;37304;52.216;6.874;2023-03-20T03:11:32;11.30;;;4.85;;
51228;SDS011;37304;52.216;6.874;2023-03-20T03:16:36;10.48;;;4.38;;
51228;SDS011;37304;52.216;6.874;2023-03-20T03:21:39;14.05;;;5.13;;
51228;SDS011;37304;52.216;6.874;2023-03-20T03:26:40;12.98;;;4.72;;
51228;SDS011;37304;52.216;6.874;2023-03-20T03:31:42;9.88;;;4.90;;
51228;SDS011;37304;52.216;6.874;2023-03-20T03:47:52;12.68;;;5.18;;
51228;SDS011;37304;52.216;6.874;2023-03-20T03:52:56;10.85;;;5.30;;
51228;SDS011;37304;52.216;6.874;2023-03-20T03:58:41;13.57;;;6.05;;
51228;SDS011;37304;52.216;6.874;2023-03-20T04:03:31;12.63;;;5.38;;
51228;SDS011;37304;52.216;6.874;2023-03-20T04:08:38;12.85;;;5.60;;
51228;SDS011;37304;52.216;6.874;2023-03-20T04:13:40;14.27;;;6.28;;
51228;SDS011;37304;52.216;6.874;2023-03-20T04:23:41;19.65;;;7.20;;
51228;SDS011;37304;52.216;6.874;2023-03-20T04:28:42;14.25;;;6.53;;
51228;SDS011;37304;52.216;6.874;2023-03-20T04:33:46;16.70;;;7.20;;
51228;SDS011;37304;52.216;6.874;2023-03-20T04:38:47;16.77;;;6.57;;
51228;SDS011;37304;52.216;6.874;2023-03-20T04:43:51;18.10;;;7.55;;
51228;SDS011;37304;52.216;6.874;2023-03-20T04:49:02;19.48;;;6.75;;
51228;SDS011;37304;52.216;6.874;2023-03-20T04:54:02;18.60;;;6.65;;
51228;SDS011;37304;52.216;6.874;2023-03-20T04:59:05;11.50;;;5.55;;
51228;SDS011;37304;52.216;6.874;2023-03-20T05:04:11;17.10;;;6.35;;
51228;SDS011;37304;52.216;6.874;2023-03-20T05:09:19;13.07;;;5.93;;
51228;SDS011;37304;52.216;6.874;2023-03-20T05:14:23;11.80;;;4.85;;
51228;SDS011;37304;52.216;6.874;2023-03-20T05:19:28;10.52;;;4.28;;
51228;SDS011;37304;52.216;6.874;2023-03-20T05:24:35;8.68;;;4.65;;
51228;SDS011;37304;52.216;6.874;2023-03-20T05:29:36;11.27;;;4.43;;
51228;SDS011;37304;52.216;6.874;2023-03-20T05:34:58;9.23;;;3.92;;
51228;SDS011;37304;52.216;6.874;2023-03-20T05:40:01;9.63;;;4.53;;
51228;SDS011;37304;52.216;6.874;2023-03-20T05:45:28;9.60;;;3.80;;
51228;SDS011;37304;52.216;6.874;2023-03-20T05:50:41;9.27;;;4.18;;
51228;SDS011;37304;52.216;6.874;2023-03-20T05:55:44;14.88;;;4.63;;
51228;SDS011;37304;52.216;6.874;2023-03-20T06:00:55;9.35;;;3.90;;
51228;SDS011;37304;52.216;6.874;2023-03-20T06:11:06;9.70;;;4.05;;
51228;SDS011;37304;52.216;6.874;2023-03-20T06:16:07;13.88;;;3.92;;
51228;SDS011;37304;52.216;6.874;2023-03-20T06:21:08;16.73;;;4.75;;
51228;SDS011;37304;52.216;6.874;2023-03-20T06:26:14;11.38;;;4.10;;
51228;SDS011;37304;52.216;6.874;2023-03-20T06:31:35;11.10;;;3.92;;
51228;SDS011;37304;52.216;6.874;2023-03-20T06:36:39;10.00;;;4.40;;
51228;SDS011;37304;52.216;6.874;2023-03-20T06:41:45;11.95;;;4.45;;
51228;SDS011;37304;52.216;6.874;2023-03-20T06:46:46;10.05;;;4.90;;
51228;SDS011;37304;52.216;6.874;2023-03-20T06:51:47;13.13;;;5.05;;
51228;SDS011;37304;52.216;6.874;2023-03-20T06:56:47;14.20;;;4.60;;
51228;SDS011;37304;52.216;6.874;2023-03-20T07:01:50;16.97;;;5.43;;
51228;SDS011;37304;52.216;6.874;2023-03-20T07:06:51;16.20;;;4.93;;
51228;SDS011;37304;52.216;6.874;2023-03-20T07:11:52;13.98;;;5.20;;
51228;SDS011;37304;52.216;6.874;2023-03-20T07:16:53;13.73;;;4.85;;
51228;SDS011;37304;52.216;6.874;2023-03-20T07:21:57;10.88;;;4.72;;
51228;SDS011;37304;52.216;6.874;2023-03-20T07:27:04;11.75;;;4.60;;
51228;SDS011;37304;52.216;6.874;2023-03-20T07:32:04;11.63;;;4.57;;
51228;SDS011;37304;52.216;6.874;2023-03-20T07:37:08;13.18;;;5.35;;
51228;SDS011;37304;52.216;6.874;2023-03-20T07:42:09;11.95;;;4.95;;
51228;SDS011;37304;52.216;6.874;2023-03-20T07:47:10;11.07;;;4.65;;
51228;SDS011;37304;52.216;6.874;2023-03-20T07:52:10;12.77;;;4.75;;
51228;SDS011;37304;52.216;6.874;2023-03-20T07:57:11;13.23;;;4.40;;
51228;SDS011;37304;52.216;6.874;2023-03-20T08:02:15;9.07;;;3.50;;
51228;SDS011;37304;52.216;6.874;2023-03-20T08:07:16;10.93;;;4.25;;
51228;SDS011;37304;52.216;6.874;2023-03-20T08:12:16;9.30;;;4.03;;
51228;SDS011;37304;52.216;6.874;2023-03-20T08:17:17;9.43;;;3.63;;
51228;SDS011;37304;52.216;6.874;2023-03-20T08:22:18;10.65;;;4.18;;
51228;SDS011;37304;52.216;6.874;2023-03-20T08:27:18;7.17;;;3.53;;
51228;SDS011;37304;52.216;6.874;2023-03-20T08:32:18;8.57;;;3.50;;
51228;SDS011;37304;52.216;6.874;2023-03-20T08:37:22;10.35;;;3.95;;
51228;SDS011;37304;52.216;6.874;2023-03-20T08:42:28;7.97;;;2.50;;
51228;SDS011;37304;52.216;6.874;2023-03-20T08:47:30;11.30;;;3.35;;
51228;SDS011;37304;52.216;6.874;2023-03-20T08:52:30;13.07;;;4.25;;
51228;SDS011;37304;52.216;6.874;2023-03-20T09:02:42;7.33;;;2.90;;
51228;SDS011;37304;52.216;6.874;2023-03-20T09:07:42;7.07;;;3.13;;
51228;SDS011;37304;52.216;6.874;2023-03-20T09:12:43;10.13;;;3.47;;
51228;SDS011;37304;52.216;6.874;2023-03-20T09:17:43;10.00;;;2.93;;
51228;SDS011;37304;52.216;6.874;2023-03-20T09:27:44;5.03;;;3.00;;
51228;SDS011;37304;52.216;6.874;2023-03-20T09:37:45;8.10;;;2.92;;
51228;SDS011;37304;52.216;6.874;2023-03-20T09:48:08;5.80;;;2.95;;
51228;SDS011;37304;52.216;6.874;2023-03-20T09:58:30;8.98;;;2.63;;
51228;SDS011;37304;52.216;6.874;2023-03-20T10:08:52;8.63;;;2.80;;
51228;SDS011;37304;52.216;6.874;2023-03-20T10:19:47;4.63;;;2.42;;
51228;SDS011;37304;52.216;6.874;2023-03-20T10:42:07;7.45;;;2.13;;
51228;SDS011;37304;52.216;6.874;2023-03-20T10:47:25;3.67;;;1.73;;
51228;SDS011;37304;52.216;6.874;2023-03-20T10:52:38;3.42;;;1.83;;
51228;SDS011;37304;52.216;6.874;2023-03-20T10:57:43;4.40;;;2.13;;
51228;SDS011;37304;52.216;6.874;2023-03-20T11:02:53;5.32;;;2.45;;
51228;SDS011;37304;52.216;6.874;2023-03-20T11:08:04;9.40;;;1.50;;
51228;SDS011;37304;52.216;6.874;2023-03-20T11:13:15;1.88;;;1.10;;
51228;SDS011;37304;52.216;6.874;2023-03-20T11:18:24;4.30;;;1.65;;
51228;SDS011;37304;52.216;6.874;2023-03-20T11:23:31;6.38;;;1.80;;
51228;SDS011;37304;52.216;6.874;2023-03-20T11:28:56;3.97;;;2.30;;
51228;SDS011;37304;52.216;6.874;2023-03-20T11:44:32;4.80;;;1.10;;
51228;SDS011;37304;52.216;6.874;2023-03-20T11:49:44;7.82;;;2.25;;
51228;SDS011;37304;52.216;6.874;2023-03-20T11:54:51;5.18;;;2.20;;
51228;SDS011;37304;52.216;6.874;2023-03-20T11:59:53;11.05;;;2.40;;
51228;SDS011;37304;52.216;6.874;2023-03-20T12:05:02;4.57;;;2.10;;
51228;SDS011;37304;52.216;6.874;2023-03-20T12:10:33;5.13;;;1.92;;
51228;SDS011;37304;52.216;6.874;2023-03-20T12:15:43;5.53;;;2.33;;
51228;SDS011;37304;52.216;6.874;2023-03-20T12:26:14;6.03;;;2.72;;
51228;SDS011;37304;52.216;6.874;2023-03-20T12:31:23;6.72;;;2.58;;
51228;SDS011;37304;52.216;6.874;2023-03-20T12:36:46;6.20;;;3.00;;
51228;SDS011;37304;52.216;6.874;2023-03-20T12:57:43;3.72;;;1.45;;
51228;SDS011;37304;52.216;6.874;2023-03-20T13:08:17;4.10;;;1.50;;
51228;SDS011;37304;52.216;6.874;2023-03-20T13:13:24;8.30;;;2.35;;
51228;SDS011;37304;52.216;6.874;2023-03-20T13:29:34;4.10;;;1.58;;
51228;SDS011;37304;52.216;6.874;2023-03-20T13:35:34;4.05;;;1.45;;
51228;SDS011;37304;52.216;6.874;2023-03-20T13:40:39;4.60;;;1.38;;
51228;SDS011;37304;52.216;6.874;2023-03-20T13:45:45;2.95;;;1.88;;
51228;SDS011;37304;52.216;6.874;2023-03-20T13:50:50;6.45;;;1.73;;
51228;SDS011;37304;52.216;6.874;2023-03-20T14:01:10;3.70;;;1.77;;
51228;SDS011;37304;52.216;6.874;2023-03-20T14:06:16;4.00;;;1.80;;
51228;SDS011;37304;52.216;6.874;2023-03-20T14:16:21;10.05;;;2.78;;
51228;SDS011;37304;52.216;6.874;2023-03-20T14:21:22;3.05;;;1.48;;
51228;SDS011;37304;52.216;6.874;2023-03-20T14:26:26;13.93;;;1.90;;
51228;SDS011;37304;52.216;6.874;2023-03-20T14:31:30;7.18;;;2.05;;
51228;SDS011;37304;52.216;6.874;2023-03-20T14:36:43;4.90;;;1.50;;
51228;SDS011;37304;52.216;6.874;2023-03-20T14:41:58;4.57;;;2.08;;
51228;SDS011;37304;52.216;6.874;2023-03-20T14:47:20;4.45;;;1.73;;
51228;SDS011;37304;52.216;6.874;2023-03-20T14:52:34;5.18;;;2.70;;
51228;SDS011;37304;52.216;6.874;2023-03-20T14:57:40;5.40;;;1.75;;
51228;SDS011;37304;52.216;6.874;2023-03-20T15:02:40;4.57;;;2.20;;
51228;SDS011;37304;52.216;6.874;2023-03-20T15:07:51;2.17;;;1.60;;
51228;SDS011;37304;52.216;6.874;2023-03-20T15:12:52;6.82;;;2.47;;
51228;SDS011;37304;52.216;6.874;2023-03-20T15:17:54;7.18;;;2.72;;
51228;SDS011;37304;52.216;6.874;2023-03-20T15:22:55;5.17;;;2.90;;
51228;SDS011;37304;52.216;6.874;2023-03-20T15:28:00;4.32;;;2.42;;
51228;SDS011;37304;52.216;6.874;2023-03-20T15:33:16;11.57;;;3.28;;
51228;SDS011;37304;52.216;6.874;2023-03-20T15:38:25;6.57;;;2.13;;
51228;SDS011;37304;52.216;6.874;2023-03-20T15:43:32;6.32;;;2.40;;
51228;SDS011;37304;52.216;6.874;2023-03-20T15:48:37;6.68;;;2.90;;
51228;SDS011;37304;52.216;6.874;2023-03-20T15:53:37;8.73;;;3.10;;
51228;SDS011;37304;52.216;6.874;2023-03-20T15:58:40;9.10;;;3.28;;
51228;SDS011;37304;52.216;6.874;2023-03-20T16:03:42;8.38;;;3.17;;
51228;SDS011;37304;52.216;6.874;2023-03-20T16:08:42;14.23;;;4.07;;
51228;SDS011;37304;52.216;6.874;2023-03-20T16:13:46;7.72;;;3.47;;
51228;SDS011;37304;52.216;6.874;2023-03-20T16:18:47;7.43;;;3.95;;
51228;SDS011;37304;52.216;6.874;2023-03-20T16:23:51;10.50;;;4.60;;
51228;SDS011;37304;52.216;6.874;2023-03-20T16:28:58;11.07;;;4.65;;
51228;SDS011;37304;52.216;6.874;2023-03-20T16:34:05;12.20;;;5.22;;
51228;SDS011;37304;52.216;6.874;2023-03-20T16:39:09;9.18;;;4.18;;
51228;SDS011;37304;52.216;6.874;2023-03-20T16:44:19;7.15;;;4.57;;
51228;SDS011;37304;52.216;6.874;2023-03-20T16:54:29;9.98;;;4.55;;
51228;SDS011;37304;52.216;6.874;2023-03-20T16:59:32;9.18;;;4.13;;
51228;SDS011;37304;52.216;6.874;2023-03-20T17:04:39;9.52;;;4.93;;
51228;SDS011;37304;52.216;6.874;2023-03-20T17:14:55;7.90;;;4.63;;
51228;SDS011;37304;52.216;6.874;2023-03-20T17:19:56;9.55;;;4.85;;
51228;SDS011;37304;52.216;6.874;2023-03-20T17:24:57;10.10;;;4.78;;
51228;SDS011;37304;52.216;6.874;2023-03-20T17:29:57;10.33;;;3.97;;
51228;SDS011;37304;52.216;6.874;2023-03-20T17:34:58;13.48;;;4.28;;
51228;SDS011;37304;52.216;6.874;2023-03-20T17:39:58;8.33;;;4.53;;
51228;SDS011;37304;52.216;6.874;2023-03-20T17:45:00;11.10;;;4.63;;
51228;SDS011;37304;52.216;6.874;2023-03-20T17:50:02;10.82;;;5.60;;
51228;SDS011;37304;52.216;6.874;2023-03-20T17:55:03;10.38;;;4.63;;
51228;SDS011;37304;52.216;6.874;2023-03-20T18:00:05;13.45;;;5.03;;
51228;SDS011;37304;52.216;6.874;2023-03-20T18:05:09;11.57;;;4.50;;
51228;SDS011;37304;52.216;6.874;2023-03-20T18:10:28;18.63;;;4.88;;
51228;SDS011;37304;52.216;6.874;2023-03-20T18:15:33;11.95;;;4.55;;
51228;SDS011;37304;52.216;6.874;2023-03-20T18:20:37;11.88;;;5.32;;
51228;SDS011;37304;52.216;6.874;2023-03-20T18:25:40;12.25;;;5.45;;
51228;SDS011;37304;52.216;6.874;2023-03-20T18:30:40;7.43;;;4.67;;
51228;SDS011;37304;52.216;6.874;2023-03-20T18:35:41;9.13;;;5.22;;
51228;SDS011;37304;52.216;6.874;2023-03-20T18:40:41;10.15;;;4.80;;
51228;SDS011;37304;52.216;6.874;2023-03-20T18:45:46;12.00;;;4.85;;
51228;SDS011;37304;52.216;6.874;2023-03-20T18:50:46;14.83;;;5.17;;
51228;SDS011;37304;52.216;6.874;2023-03-20T18:55:49;11.05;;;5.22;;
51228;SDS011;37304;52.216;6.874;2023-03-20T19:00:51;11.23;;;4.72;;
51228;SDS011;37304;52.216;6.874;2023-03-20T19:05:54;17.05;;;6.47;;
51228;SDS011;37304;52.216;6.874;2023-03-20T19:10:56;12.65;;;5.03;;
51228;SDS011;37304;52.216;6.874;2023-03-20T19:16:00;11.65;;;4.45;;
51228;SDS011;37304;52.216;6.874;2023-03-20T19:21:00;14.40;;;5.10;;
51228;SDS011;37304;52.216;6.874;2023-03-20T19:26:04;11.00;;;4.82;;
51228;SDS011;37304;52.216;6.874;2023-03-20T19:31:13;8.82;;;4.97;;
51228;SDS011;37304;52.216;6.874;2023-03-20T19:36:27;11.38;;;5.47;;
51228;SDS011;37304;52.216;6.874;2023-03-20T19:41:42;13.73;;;5.53;;
51228;SDS011;37304;52.216;6.874;2023-03-20T19:46:49;18.05;;;5.03;;
51228;SDS011;37304;52.216;6.874;2023-03-20T19:51:56;12.07;;;5.45;;
51228;SDS011;37304;52.216;6.874;2023-03-20T19:57:06;11.55;;;5.00;;
51228;SDS011;37304;52.216;6.874;2023-03-20T20:02:10;8.20;;;4.32;;
51228;SDS011;37304;52.216;6.874;2023-03-20T20:07:19;8.40;;;5.03;;
51228;SDS011;37304;52.216;6.874;2023-03-20T20:12:26;16.13;;;4.90;;
51228;SDS011;37304;52.216;6.874;2023-03-20T20:17:29;14.85;;;5.43;;
51228;SDS011;37304;52.216;6.874;2023-03-20T20:22:31;12.63;;;5.30;;
51228;SDS011;37304;52.216;6.874;2023-03-20T20:27:33;9.48;;;5.05;;
51228;SDS011;37304;52.216;6.874;2023-03-20T20:32:35;12.77;;;5.55;;
51228;SDS011;37304;52.216;6.874;2023-03-20T20:37:37;15.85;;;5.60;;
51228;SDS011;37304;52.216;6.874;2023-03-20T20:47:50;12.85;;;4.97;;
51228;SDS011;37304;52.216;6.874;2023-03-20T20:52:52;8.45;;;4.70;;
51228;SDS011;37304;52.216;6.874;2023-03-20T20:57:54;14.82;;;5.22;;
51228;SDS011;37304;52.216;6.874;2023-03-20T21:07:55;9.30;;;3.90;;
51228;SDS011;37304;52.216;6.874;2023-03-20T21:12:56;10.50;;;4.88;;
51228;SDS011;37304;52.216;6.874;2023-03-20T21:17:57;9.53;;;4.13;;
51228;SDS011;37304;52.216;6.874;2023-03-20T21:22:58;13.93;;;5.28;;
51228;SDS011;37304;52.216;6.874;2023-03-20T21:27:58;12.75;;;4.95;;
51228;SDS011;37304;52.216;6.874;2023-03-20T21:32:59;9.85;;;4.82;;
51228;SDS011;37304;52.216;6.874;2023-03-20T21:38:03;10.88;;;4.80;;
51228;SDS011;37304;52.216;6.874;2023-03-20T21:43:04;20.63;;;5.13;;
51228;SDS011;37304;52.216;6.874;2023-03-20T21:48:05;11.15;;;4.75;;
51228;SDS011;37304;52.216;6.874;2023-03-20T21:53:05;17.20;;;6.45;;
51228;SDS011;37304;52.216;6.874;2023-03-20T21:58:06;11.68;;;5.88;;
51228;SDS011;37304;52.216;6.874;2023-03-20T22:03:07;15.47;;;5.70;;
51228;SDS011;37304;52.216;6.874;2023-03-20T22:08:08;7.93;;;4.75;;
51228;SDS011;37304;52.216;6.874;2023-03-20T22:13:12;12.15;;;5.80;;
51228;SDS011;37304;52.216;6.874;2023-03-20T22:18:18;13.93;;;6.03;;
51228;SDS011;37304;52.216;6.874;2023-03-20T22:23:19;16.48;;;5.70;;
51228;SDS011;37304;52.216;6.874;2023-03-20T22:28:19;14.77;;;6.43;;
51228;SDS011;37304;52.216;6.874;2023-03-20T22:33:20;17.58;;;7.10;;
51228;SDS011;37304;52.216;6.874;2023-03-20T22:44:40;16.45;;;6.18;;
51228;SDS011;37304;52.216;6.874;2023-03-20T22:55:18;19.40;;;6.68;;
51228;SDS011;37304;52.216;6.874;2023-03-20T23:00:32;14.63;;;6.80;;
51228;SDS011;37304;52.216;6.874;2023-03-20T23:05:38;15.85;;;6.38;;
51228;SDS011;37304;52.216;6.874;2023-03-20T23:10:43;20.20;;;7.55;;
51228;SDS011;37304;52.216;6.874;2023-03-20T23:15:53;14.82;;;6.82;;
51228;SDS011;37304;52.216;6.874;2023-03-20T23:21:15;15.55;;;6.93;;
51228;SDS011;37304;52.216;6.874;2023-03-20T23:26:32;22.90;;;7.55;;
51228;SDS011;37304;52.216;6.874;2023-03-20T23:31:38;14.57;;;7.40;;
51228;SDS011;37304;52.216;6.874;2023-03-20T23:36:43;19.48;;;6.88;;
51228;SDS011;37304;52.216;6.874;2023-03-20T23:41:44;20.83;;;7.45;;
51228;SDS011;37304;52.216;6.874;2023-03-20T23:46:45;13.93;;;6.18;;
51228;SDS011;37304;52.216;6.874;2023-03-20T23:56:50;12.57;;;6.30;;
